sensor_id;sensor_type;location;lat;lon;timestamp;temperature;humidity
11540;DHT22;5826;54.756;9.192;2023-04-12T00:00:58;6.80;99.90
11540;DHT22;5826;54.756;9.192;2023-04-12T00:03:25;6.80;99.90
11540;DHT22;5826;54.756;9.192;2023-04-12T00:05:51;6.80;99.90
11540;DHT22;5826;54.756;9.192;2023-04-12T00:08:19;6.80;99.90
11540;DHT22;5826;54.756;9.192;2023-04-12T00:10:50;6.80;99.90
11540;DHT22;5826;54.756;9.192;2023-04-12T00:13:16;6.70;99.90
11540;DHT22;5826;54.756;9.192;2023-04-12T00:15:42;6.70;99.90
11540;DHT22;5826;54.756;9.192;2023-04-12T00:18:07;6.70;99.90
11540;DHT22;5826;54.756;9.192;2023-04-12T00:20:32;6.70;99.90
11540;DHT22;5826;54.756;9.192;2023-04-12T00:22:58;6.50;99.90
11540;DHT22;5826;54.756;9.192;2023-04-12T00:25:24;6.60;99.90
11540;DHT22;5826;54.756;9.192;2023-04-12T00:27:49;6.60;99.90
11540;DHT22;5826;54.756;9.192;2023-04-12T00:30:15;6.50;99.90
11540;DHT22;5826;54.756;9.192;2023-04-12T00:32:41;6.50;99.90
11540;DHT22;5826;54.756;9.192;2023-04-12T00:35:07;6.50;99.90
11540;DHT22;5826;54.756;9.192;2023-04-12T00:37:33;6.50;99.90
11540;DHT22;5826;54.756;9.192;2023-04-12T00:40:01;6.50;99.90
11540;DHT22;5826;54.756;9.192;2023-04-12T00:42:26;6.40;99.90
11540;DHT22;5826;54.756;9.192;2023-04-12T00:44:52;6.40;99.90
11540;DHT22;5826;54.756;9.192;2023-04-12T00:47:17;6.40;99.90
11540;DHT22;5826;54.756;9.192;2023-04-12T00:49:43;6.40;99.90
11540;DHT22;5826;54.756;9.192;2023-04-12T00:52:12;6.40;99.90
11540;DHT22;5826;54.756;9.192;2023-04-12T00:54:40;6.40;99.90
11540;DHT22;5826;54.756;9.192;2023-04-12T00:57:06;6.40;99.90
11540;DHT22;5826;54.756;9.192;2023-04-12T00:59:32;6.40;99.90
11540;DHT22;5826;54.756;9.192;2023-04-12T01:01:58;6.40;99.90
11540;DHT22;5826;54.756;9.192;2023-04-12T01:04:24;6.40;99.90
11540;DHT22;5826;54.756;9.192;2023-04-12T01:06:58;6.40;99.90
11540;DHT22;5826;54.756;9.192;2023-04-12T01:09:52;6.30;99.90
11540;DHT22;5826;54.756;9.192;2023-04-12T01:12:27;6.30;99.90
11540;DHT22;5826;54.756;9.192;2023-04-12T01:15:07;6.30;99.90
11540;DHT22;5826;54.756;9.192;2023-04-12T01:17:58;6.30;99.90
11540;DHT22;5826;54.756;9.192;2023-04-12T01:20:32;6.30;99.90
11540;DHT22;5826;54.756;9.192;2023-04-12T01:23:30;6.30;99.90
11540;DHT22;5826;54.756;9.192;2023-04-12T01:26:30;6.30;99.90
11540;DHT22;5826;54.756;9.192;2023-04-12T01:29:02;6.30;99.90
11540;DHT22;5826;54.756;9.192;2023-04-12T01:31:30;6.20;99.90
11540;DHT22;5826;54.756;9.192;2023-04-12T01:33:58;6.20;99.90
11540;DHT22;5826;54.756;9.192;2023-04-12T01:36:26;6.20;99.90
11540;DHT22;5826;54.756;9.192;2023-04-12T01:38:53;6.30;99.90
11540;DHT22;5826;54.756;9.192;2023-04-12T01:41:19;6.30;99.90
11540;DHT22;5826;54.756;9.192;2023-04-12T01:43:46;6.30;99.90
11540;DHT22;5826;54.756;9.192;2023-04-12T01:46:13;6.30;99.90
11540;DHT22;5826;54.756;9.192;2023-04-12T01:48:48;6.40;99.90
11540;DHT22;5826;54.756;9.192;2023-04-12T01:51:28;6.40;99.90
11540;DHT22;5826;54.756;9.192;2023-04-12T01:53:56;6.40;99.90
11540;DHT22;5826;54.756;9.192;2023-04-12T01:56:23;6.40;99.90
11540;DHT22;5826;54.756;9.192;2023-04-12T01:58:52;6.40;99.90
11540;DHT22;5826;54.756;9.192;2023-04-12T02:01:20;6.40;99.90
11540;DHT22;5826;54.756;9.192;2023-04-12T02:03:46;6.50;99.90
11540;DHT22;5826;54.756;9.192;2023-04-12T02:06:18;6.50;99.90
11540;DHT22;5826;54.756;9.192;2023-04-12T02:08:45;6.50;99.90
11540;DHT22;5826;54.756;9.192;2023-04-12T02:11:12;6.50;99.90
11540;DHT22;5826;54.756;9.192;2023-04-12T02:13:39;6.50;99.90
11540;DHT22;5826;54.756;9.192;2023-04-12T02:16:05;6.50;99.90
11540;DHT22;5826;54.756;9.192;2023-04-12T02:18:32;6.50;99.90
11540;DHT22;5826;54.756;9.192;2023-04-12T02:20:59;6.50;99.90
11540;DHT22;5826;54.756;9.192;2023-04-12T02:23:25;6.50;99.90
11540;DHT22;5826;54.756;9.192;2023-04-12T02:25:50;6.50;99.90
11540;DHT22;5826;54.756;9.192;2023-04-12T02:28:16;6.50;99.90
11540;DHT22;5826;54.756;9.192;2023-04-12T02:30:41;6.50;99.90
11540;DHT22;5826;54.756;9.192;2023-04-12T02:33:07;6.50;99.90
11540;DHT22;5826;54.756;9.192;2023-04-12T02:35:36;6.50;99.90
11540;DHT22;5826;54.756;9.192;2023-04-12T02:38:02;6.50;99.90
11540;DHT22;5826;54.756;9.192;2023-04-12T02:40:32;6.50;99.90
11540;DHT22;5826;54.756;9.192;2023-04-12T02:42:58;6.50;99.90
11540;DHT22;5826;54.756;9.192;2023-04-12T02:45:23;6.50;99.90
11540;DHT22;5826;54.756;9.192;2023-04-12T02:47:49;6.50;99.90
11540;DHT22;5826;54.756;9.192;2023-04-12T02:50:14;6.50;99.90
11540;DHT22;5826;54.756;9.192;2023-04-12T02:52:40;6.60;99.90
11540;DHT22;5826;54.756;9.192;2023-04-12T02:55:06;6.50;99.90
11540;DHT22;5826;54.756;9.192;2023-04-12T02:57:31;6.50;99.90
11540;DHT22;5826;54.756;9.192;2023-04-12T02:59:57;6.60;99.90
11540;DHT22;5826;54.756;9.192;2023-04-12T03:02:22;6.60;99.90
11540;DHT22;5826;54.756;9.192;2023-04-12T03:04:48;6.60;99.90
11540;DHT22;5826;54.756;9.192;2023-04-12T03:07:17;6.60;99.90
11540;DHT22;5826;54.756;9.192;2023-04-12T03:09:48;6.60;99.90
11540;DHT22;5826;54.756;9.192;2023-04-12T03:12:14;6.60;99.90
11540;DHT22;5826;54.756;9.192;2023-04-12T03:14:40;6.70;99.90
11540;DHT22;5826;54.756;9.192;2023-04-12T03:17:06;6.70;99.90
11540;DHT22;5826;54.756;9.192;2023-04-12T03:19:31;6.70;99.90
11540;DHT22;5826;54.756;9.192;2023-04-12T03:21:59;6.70;99.90
11540;DHT22;5826;54.756;9.192;2023-04-12T03:24:26;6.70;99.90
11540;DHT22;5826;54.756;9.192;2023-04-12T03:26:51;6.80;99.90
11540;DHT22;5826;54.756;9.192;2023-04-12T03:29:17;6.80;99.90
11540;DHT22;5826;54.756;9.192;2023-04-12T03:31:43;6.80;99.90
11540;DHT22;5826;54.756;9.192;2023-04-12T03:34:08;6.90;99.90
11540;DHT22;5826;54.756;9.192;2023-04-12T03:36:34;6.90;99.90
11540;DHT22;5826;54.756;9.192;2023-04-12T03:38:59;6.90;99.90
11540;DHT22;5826;54.756;9.192;2023-04-12T03:41:26;7.00;99.90
11540;DHT22;5826;54.756;9.192;2023-04-12T03:43:52;7.00;99.90
11540;DHT22;5826;54.756;9.192;2023-04-12T03:46:18;7.00;99.90
11540;DHT22;5826;54.756;9.192;2023-04-12T03:48:43;7.00;99.90
11540;DHT22;5826;54.756;9.192;2023-04-12T03:51:09;7.00;99.90
11540;DHT22;5826;54.756;9.192;2023-04-12T03:53:36;7.00;99.90
11540;DHT22;5826;54.756;9.192;2023-04-12T03:56:02;7.00;99.90
11540;DHT22;5826;54.756;9.192;2023-04-12T03:58:27;7.00;99.90
11540;DHT22;5826;54.756;9.192;2023-04-12T04:00:53;7.00;99.90
11540;DHT22;5826;54.756;9.192;2023-04-12T04:03:18;7.00;99.90
11540;DHT22;5826;54.756;9.192;2023-04-12T04:05:44;7.00;99.90
11540;DHT22;5826;54.756;9.192;2023-04-12T04:08:10;7.00;99.90
11540;DHT22;5826;54.756;9.192;2023-04-12T04:10:35;7.00;99.90
11540;DHT22;5826;54.756;9.192;2023-04-12T04:13:01;7.00;99.90
11540;DHT22;5826;54.756;9.192;2023-04-12T04:15:27;7.00;99.90
11540;DHT22;5826;54.756;9.192;2023-04-12T04:17:52;7.00;99.90
11540;DHT22;5826;54.756;9.192;2023-04-12T04:20:19;7.00;99.90
11540;DHT22;5826;54.756;9.192;2023-04-12T04:22:45;6.90;99.90
11540;DHT22;5826;54.756;9.192;2023-04-12T04:25:13;6.90;99.90
11540;DHT22;5826;54.756;9.192;2023-04-12T04:27:42;7.00;99.90
11540;DHT22;5826;54.756;9.192;2023-04-12T04:30:11;6.90;99.90
11540;DHT22;5826;54.756;9.192;2023-04-12T04:32:38;7.00;99.90
11540;DHT22;5826;54.756;9.192;2023-04-12T04:35:04;6.90;99.90
11540;DHT22;5826;54.756;9.192;2023-04-12T04:37:30;7.00;99.90
11540;DHT22;5826;54.756;9.192;2023-04-12T04:39:55;7.00;99.90
11540;DHT22;5826;54.756;9.192;2023-04-12T04:42:22;7.00;99.90
11540;DHT22;5826;54.756;9.192;2023-04-12T04:44:48;7.00;99.90
11540;DHT22;5826;54.756;9.192;2023-04-12T04:47:24;7.10;99.90
11540;DHT22;5826;54.756;9.192;2023-04-12T04:49:49;7.10;99.90
11540;DHT22;5826;54.756;9.192;2023-04-12T04:52:15;7.10;99.90
11540;DHT22;5826;54.756;9.192;2023-04-12T04:54:40;7.10;99.90
11540;DHT22;5826;54.756;9.192;2023-04-12T04:57:06;7.10;99.90
11540;DHT22;5826;54.756;9.192;2023-04-12T04:59:36;7.10;99.90
11540;DHT22;5826;54.756;9.192;2023-04-12T05:02:01;7.10;99.90
11540;DHT22;5826;54.756;9.192;2023-04-12T05:04:27;7.10;99.90
11540;DHT22;5826;54.756;9.192;2023-04-12T05:06:53;7.10;99.90
11540;DHT22;5826;54.756;9.192;2023-04-12T05:09:18;7.10;99.90
11540;DHT22;5826;54.756;9.192;2023-04-12T05:11:44;7.10;99.90
11540;DHT22;5826;54.756;9.192;2023-04-12T05:14:09;7.10;99.90
11540;DHT22;5826;54.756;9.192;2023-04-12T05:16:34;7.10;99.90
11540;DHT22;5826;54.756;9.192;2023-04-12T05:19:00;7.20;99.90
11540;DHT22;5826;54.756;9.192;2023-04-12T05:21:26;7.20;99.90
11540;DHT22;5826;54.756;9.192;2023-04-12T05:23:52;7.70;99.90
11540;DHT22;5826;54.756;9.192;2023-04-12T05:26:18;7.20;99.90
11540;DHT22;5826;54.756;9.192;2023-04-12T05:28:43;7.20;99.90
11540;DHT22;5826;54.756;9.192;2023-04-12T05:31:09;7.20;99.90
11540;DHT22;5826;54.756;9.192;2023-04-12T05:33:35;7.20;99.90
11540;DHT22;5826;54.756;9.192;2023-04-12T05:36:01;7.20;99.90
11540;DHT22;5826;54.756;9.192;2023-04-12T05:38:27;7.30;99.90
11540;DHT22;5826;54.756;9.192;2023-04-12T05:40:52;7.30;99.90
11540;DHT22;5826;54.756;9.192;2023-04-12T05:43:18;7.40;99.90
11540;DHT22;5826;54.756;9.192;2023-04-12T05:45:44;7.50;99.90
11540;DHT22;5826;54.756;9.192;2023-04-12T05:48:09;7.50;99.90
11540;DHT22;5826;54.756;9.192;2023-04-12T05:50:35;7.60;99.90
11540;DHT22;5826;54.756;9.192;2023-04-12T05:53:00;7.70;99.90
11540;DHT22;5826;54.756;9.192;2023-04-12T05:55:27;7.70;99.90
11540;DHT22;5826;54.756;9.192;2023-04-12T05:57:52;7.80;99.90
11540;DHT22;5826;54.756;9.192;2023-04-12T06:00:19;7.90;99.90
11540;DHT22;5826;54.756;9.192;2023-04-12T06:02:46;8.00;99.90
11540;DHT22;5826;54.756;9.192;2023-04-12T06:05:12;8.10;99.90
11540;DHT22;5826;54.756;9.192;2023-04-12T06:07:39;8.20;99.90
11540;DHT22;5826;54.756;9.192;2023-04-12T06:10:07;8.20;99.90
11540;DHT22;5826;54.756;9.192;2023-04-12T06:12:32;8.20;99.90
11540;DHT22;5826;54.756;9.192;2023-04-12T06:14:58;8.30;99.90
11540;DHT22;5826;54.756;9.192;2023-04-12T06:17:23;8.30;99.90
11540;DHT22;5826;54.756;9.192;2023-04-12T06:19:49;8.40;99.90
11540;DHT22;5826;54.756;9.192;2023-04-12T06:22:15;8.40;99.90
11540;DHT22;5826;54.756;9.192;2023-04-12T06:24:40;8.40;99.90
11540;DHT22;5826;54.756;9.192;2023-04-12T06:27:06;8.40;99.90
11540;DHT22;5826;54.756;9.192;2023-04-12T06:29:31;8.50;99.90
11540;DHT22;5826;54.756;9.192;2023-04-12T06:31:57;8.50;99.90
11540;DHT22;5826;54.756;9.192;2023-04-12T06:34:23;8.50;99.90
11540;DHT22;5826;54.756;9.192;2023-04-12T06:36:48;8.60;99.90
11540;DHT22;5826;54.756;9.192;2023-04-12T06:39:14;8.60;99.90
11540;DHT22;5826;54.756;9.192;2023-04-12T06:41:40;8.70;99.90
11540;DHT22;5826;54.756;9.192;2023-04-12T06:44:08;8.70;99.90
11540;DHT22;5826;54.756;9.192;2023-04-12T06:46:34;8.80;99.90
11540;DHT22;5826;54.756;9.192;2023-04-12T06:49:00;8.90;99.90
11540;DHT22;5826;54.756;9.192;2023-04-12T06:51:25;9.00;99.90
11540;DHT22;5826;54.756;9.192;2023-04-12T06:53:52;9.00;99.90
11540;DHT22;5826;54.756;9.192;2023-04-12T06:56:18;9.00;99.90
11540;DHT22;5826;54.756;9.192;2023-04-12T06:58:43;9.10;99.90
11540;DHT22;5826;54.756;9.192;2023-04-12T07:01:09;9.10;99.90
11540;DHT22;5826;54.756;9.192;2023-04-12T07:03:35;9.20;99.90
11540;DHT22;5826;54.756;9.192;2023-04-12T07:06:01;9.20;99.90
11540;DHT22;5826;54.756;9.192;2023-04-12T07:08:27;9.20;99.90
11540;DHT22;5826;54.756;9.192;2023-04-12T07:10:53;9.30;99.90
11540;DHT22;5826;54.756;9.192;2023-04-12T07:13:19;9.30;99.90
11540;DHT22;5826;54.756;9.192;2023-04-12T07:15:45;9.30;99.90
11540;DHT22;5826;54.756;9.192;2023-04-12T07:18:11;9.30;99.90
11540;DHT22;5826;54.756;9.192;2023-04-12T07:20:36;9.30;99.90
11540;DHT22;5826;54.756;9.192;2023-04-12T07:23:02;9.30;99.90
11540;DHT22;5826;54.756;9.192;2023-04-12T07:25:27;9.30;99.90
11540;DHT22;5826;54.756;9.192;2023-04-12T07:27:53;9.30;99.90
11540;DHT22;5826;54.756;9.192;2023-04-12T07:30:18;9.40;99.90
11540;DHT22;5826;54.756;9.192;2023-04-12T07:32:44;9.40;99.90
11540;DHT22;5826;54.756;9.192;2023-04-12T07:35:10;9.40;99.90
11540;DHT22;5826;54.756;9.192;2023-04-12T07:37:36;9.40;99.90
11540;DHT22;5826;54.756;9.192;2023-04-12T07:40:02;9.40;99.90
11540;DHT22;5826;54.756;9.192;2023-04-12T07:42:27;9.40;99.90
11540;DHT22;5826;54.756;9.192;2023-04-12T07:44:53;9.50;99.90
11540;DHT22;5826;54.756;9.192;2023-04-12T07:47:18;9.50;99.90
11540;DHT22;5826;54.756;9.192;2023-04-12T07:49:44;9.60;99.90
11540;DHT22;5826;54.756;9.192;2023-04-12T07:52:09;9.60;99.90
11540;DHT22;5826;54.756;9.192;2023-04-12T07:54:36;9.60;99.90
11540;DHT22;5826;54.756;9.192;2023-04-12T07:57:02;9.70;99.90
11540;DHT22;5826;54.756;9.192;2023-04-12T07:59:29;9.80;99.90
11540;DHT22;5826;54.756;9.192;2023-04-12T08:01:55;9.90;99.90
11540;DHT22;5826;54.756;9.192;2023-04-12T08:04:20;9.90;99.90
11540;DHT22;5826;54.756;9.192;2023-04-12T08:06:46;10.00;99.90
11540;DHT22;5826;54.756;9.192;2023-04-12T08:09:11;10.10;99.90
11540;DHT22;5826;54.756;9.192;2023-04-12T08:11:37;10.20;99.90
11540;DHT22;5826;54.756;9.192;2023-04-12T08:14:02;10.20;99.90
11540;DHT22;5826;54.756;9.192;2023-04-12T08:16:28;10.20;99.90
11540;DHT22;5826;54.756;9.192;2023-04-12T08:18:53;10.30;99.90
11540;DHT22;5826;54.756;9.192;2023-04-12T08:21:19;10.30;99.90
11540;DHT22;5826;54.756;9.192;2023-04-12T08:23:44;10.30;99.90
11540;DHT22;5826;54.756;9.192;2023-04-12T08:26:10;10.30;99.90
11540;DHT22;5826;54.756;9.192;2023-04-12T08:28:35;10.30;99.90
11540;DHT22;5826;54.756;9.192;2023-04-12T08:31:02;10.30;99.90
11540;DHT22;5826;54.756;9.192;2023-04-12T08:33:27;10.40;99.90
11540;DHT22;5826;54.756;9.192;2023-04-12T08:35:53;10.40;99.90
11540;DHT22;5826;54.756;9.192;2023-04-12T08:38:19;10.50;99.90
11540;DHT22;5826;54.756;9.192;2023-04-12T08:40:44;10.50;99.90
11540;DHT22;5826;54.756;9.192;2023-04-12T08:43:11;10.60;99.90
11540;DHT22;5826;54.756;9.192;2023-04-12T08:45:37;10.60;99.90
11540;DHT22;5826;54.756;9.192;2023-04-12T08:48:05;10.60;99.90
11540;DHT22;5826;54.756;9.192;2023-04-12T08:50:31;10.60;99.90
11540;DHT22;5826;54.756;9.192;2023-04-12T08:52:58;10.60;99.90
11540;DHT22;5826;54.756;9.192;2023-04-12T08:55:24;10.50;99.90
11540;DHT22;5826;54.756;9.192;2023-04-12T08:57:52;10.50;99.90
11540;DHT22;5826;54.756;9.192;2023-04-12T09:00:19;10.50;99.90
11540;DHT22;5826;54.756;9.192;2023-04-12T09:02:45;10.50;99.90
11540;DHT22;5826;54.756;9.192;2023-04-12T09:05:13;10.50;99.90
11540;DHT22;5826;54.756;9.192;2023-04-12T09:07:39;10.60;99.90
11540;DHT22;5826;54.756;9.192;2023-04-12T09:10:05;10.60;99.90
11540;DHT22;5826;54.756;9.192;2023-04-12T09:12:31;10.60;99.90
11540;DHT22;5826;54.756;9.192;2023-04-12T09:15:11;10.60;99.90
11540;DHT22;5826;54.756;9.192;2023-04-12T09:17:38;10.60;99.90
11540;DHT22;5826;54.756;9.192;2023-04-12T09:20:21;10.60;99.90
11540;DHT22;5826;54.756;9.192;2023-04-12T09:22:50;10.60;99.90
11540;DHT22;5826;54.756;9.192;2023-04-12T09:25:17;10.60;99.90
11540;DHT22;5826;54.756;9.192;2023-04-12T09:27:50;10.60;99.90
11540;DHT22;5826;54.756;9.192;2023-04-12T09:30:17;10.60;99.90
11540;DHT22;5826;54.756;9.192;2023-04-12T09:32:43;10.60;99.90
11540;DHT22;5826;54.756;9.192;2023-04-12T09:35:09;10.60;99.90
11540;DHT22;5826;54.756;9.192;2023-04-12T09:37:35;10.60;99.90
11540;DHT22;5826;54.756;9.192;2023-04-12T09:40:02;10.60;99.90
11540;DHT22;5826;54.756;9.192;2023-04-12T09:42:29;10.60;99.90
11540;DHT22;5826;54.756;9.192;2023-04-12T09:44:56;10.60;99.90
11540;DHT22;5826;54.756;9.192;2023-04-12T09:47:35;10.60;99.90
11540;DHT22;5826;54.756;9.192;2023-04-12T09:50:01;10.60;99.90
11540;DHT22;5826;54.756;9.192;2023-04-12T09:52:37;10.70;99.90
11540;DHT22;5826;54.756;9.192;2023-04-12T09:55:07;10.60;99.90
11540;DHT22;5826;54.756;9.192;2023-04-12T09:57:35;10.60;99.90
11540;DHT22;5826;54.756;9.192;2023-04-12T10:00:03;10.60;99.90
11540;DHT22;5826;54.756;9.192;2023-04-12T10:02:33;10.60;99.90
11540;DHT22;5826;54.756;9.192;2023-04-12T10:04:58;10.60;99.90
11540;DHT22;5826;54.756;9.192;2023-04-12T10:07:24;10.60;99.90
11540;DHT22;5826;54.756;9.192;2023-04-12T10:09:51;10.60;99.90
11540;DHT22;5826;54.756;9.192;2023-04-12T10:12:17;10.60;99.90
11540;DHT22;5826;54.756;9.192;2023-04-12T10:14:45;10.70;99.90
11540;DHT22;5826;54.756;9.192;2023-04-12T10:17:12;10.70;99.90
11540;DHT22;5826;54.756;9.192;2023-04-12T10:19:38;10.70;99.90
11540;DHT22;5826;54.756;9.192;2023-04-12T10:22:04;10.70;99.90
11540;DHT22;5826;54.756;9.192;2023-04-12T10:24:30;10.80;99.90
11540;DHT22;5826;54.756;9.192;2023-04-12T10:26:57;10.90;99.90
11540;DHT22;5826;54.756;9.192;2023-04-12T10:29:29;10.90;99.90
11540;DHT22;5826;54.756;9.192;2023-04-12T10:31:57;10.90;99.90
11540;DHT22;5826;54.756;9.192;2023-04-12T10:34:29;10.90;99.90
11540;DHT22;5826;54.756;9.192;2023-04-12T10:36:55;10.90;99.90
11540;DHT22;5826;54.756;9.192;2023-04-12T10:42:24;10.90;99.90
11540;DHT22;5826;54.756;9.192;2023-04-12T10:50:24;10.90;99.90
11540;DHT22;5826;54.756;9.192;2023-04-12T10:53:19;10.90;99.90
11540;DHT22;5826;54.756;9.192;2023-04-12T10:55:45;10.80;99.90
11540;DHT22;5826;54.756;9.192;2023-04-12T11:01:11;10.80;99.90
11540;DHT22;5826;54.756;9.192;2023-04-12T11:06:41;10.70;99.90
11540;DHT22;5826;54.756;9.192;2023-04-12T11:11:44;10.60;99.90
11540;DHT22;5826;54.756;9.192;2023-04-12T11:14:15;10.50;99.90
11540;DHT22;5826;54.756;9.192;2023-04-12T11:19:31;10.40;99.90
11540;DHT22;5826;54.756;9.192;2023-04-12T11:21:59;10.30;99.90
11540;DHT22;5826;54.756;9.192;2023-04-12T11:24:25;10.30;99.90
11540;DHT22;5826;54.756;9.192;2023-04-12T11:26:51;10.20;99.90
11540;DHT22;5826;54.756;9.192;2023-04-12T11:29:26;10.10;99.90
11540;DHT22;5826;54.756;9.192;2023-04-12T11:31:52;10.00;99.90
11540;DHT22;5826;54.756;9.192;2023-04-12T11:34:19;10.00;99.90
11540;DHT22;5826;54.756;9.192;2023-04-12T11:36:47;9.80;99.90
11540;DHT22;5826;54.756;9.192;2023-04-12T11:39:13;9.80;99.90
11540;DHT22;5826;54.756;9.192;2023-04-12T11:41:48;9.70;99.90
11540;DHT22;5826;54.756;9.192;2023-04-12T11:44:15;9.60;99.90
11540;DHT22;5826;54.756;9.192;2023-04-12T11:46:45;9.50;99.90
11540;DHT22;5826;54.756;9.192;2023-04-12T11:49:18;9.50;99.90
11540;DHT22;5826;54.756;9.192;2023-04-12T11:51:44;9.50;99.90
11540;DHT22;5826;54.756;9.192;2023-04-12T11:54:11;9.40;99.90
11540;DHT22;5826;54.756;9.192;2023-04-12T11:56:37;9.40;99.90
11540;DHT22;5826;54.756;9.192;2023-04-12T11:59:03;9.30;99.90
11540;DHT22;5826;54.756;9.192;2023-04-12T12:01:29;9.30;99.90
11540;DHT22;5826;54.756;9.192;2023-04-12T12:03:57;9.30;99.90
11540;DHT22;5826;54.756;9.192;2023-04-12T12:06:23;9.30;99.90
11540;DHT22;5826;54.756;9.192;2023-04-12T12:08:50;9.30;99.90
11540;DHT22;5826;54.756;9.192;2023-04-12T12:11:17;9.30;99.90
11540;DHT22;5826;54.756;9.192;2023-04-12T12:13:49;9.30;99.90
11540;DHT22;5826;54.756;9.192;2023-04-12T12:16:15;9.20;99.90
11540;DHT22;5826;54.756;9.192;2023-04-12T12:18:42;9.20;99.90
11540;DHT22;5826;54.756;9.192;2023-04-12T12:21:10;9.20;99.90
11540;DHT22;5826;54.756;9.192;2023-04-12T12:23:35;9.10;99.90
11540;DHT22;5826;54.756;9.192;2023-04-12T12:26:02;9.00;99.90
11540;DHT22;5826;54.756;9.192;2023-04-12T12:28:28;9.00;99.90
11540;DHT22;5826;54.756;9.192;2023-04-12T12:30:57;9.00;99.90
11540;DHT22;5826;54.756;9.192;2023-04-12T12:33:23;8.90;99.90
11540;DHT22;5826;54.756;9.192;2023-04-12T12:35:56;8.90;99.90
11540;DHT22;5826;54.756;9.192;2023-04-12T12:38:22;8.90;99.90
11540;DHT22;5826;54.756;9.192;2023-04-12T12:40:48;8.90;99.90
11540;DHT22;5826;54.756;9.192;2023-04-12T12:43:20;8.90;99.90
11540;DHT22;5826;54.756;9.192;2023-04-12T12:45:45;9.00;99.90
11540;DHT22;5826;54.756;9.192;2023-04-12T12:48:11;9.00;99.90
11540;DHT22;5826;54.756;9.192;2023-04-12T12:50:37;9.00;99.90
11540;DHT22;5826;54.756;9.192;2023-04-12T12:53:03;9.00;99.90
11540;DHT22;5826;54.756;9.192;2023-04-12T12:55:32;9.00;99.90
11540;DHT22;5826;54.756;9.192;2023-04-12T12:57:58;8.90;99.90
11540;DHT22;5826;54.756;9.192;2023-04-12T13:00:26;8.90;99.90
11540;DHT22;5826;54.756;9.192;2023-04-12T13:02:52;8.90;99.90
11540;DHT22;5826;54.756;9.192;2023-04-12T13:05:18;8.90;99.90
11540;DHT22;5826;54.756;9.192;2023-04-12T13:07:45;8.90;99.90
11540;DHT22;5826;54.756;9.192;2023-04-12T13:10:11;8.90;99.90
11540;DHT22;5826;54.756;9.192;2023-04-12T13:12:36;8.90;99.90
11540;DHT22;5826;54.756;9.192;2023-04-12T13:15:02;9.00;99.90
11540;DHT22;5826;54.756;9.192;2023-04-12T13:17:29;8.90;99.90
11540;DHT22;5826;54.756;9.192;2023-04-12T13:19:55;8.90;99.90
11540;DHT22;5826;54.756;9.192;2023-04-12T13:22:21;8.90;99.90
11540;DHT22;5826;54.756;9.192;2023-04-12T13:24:47;8.90;99.90
11540;DHT22;5826;54.756;9.192;2023-04-12T13:27:12;8.80;99.90
11540;DHT22;5826;54.756;9.192;2023-04-12T13:29:39;8.80;99.90
11540;DHT22;5826;54.756;9.192;2023-04-12T13:32:05;8.80;99.90
11540;DHT22;5826;54.756;9.192;2023-04-12T13:34:31;8.80;99.90
11540;DHT22;5826;54.756;9.192;2023-04-12T13:36:57;8.80;99.90
11540;DHT22;5826;54.756;9.192;2023-04-12T13:39:23;8.80;99.90
11540;DHT22;5826;54.756;9.192;2023-04-12T13:41:49;8.80;99.90
11540;DHT22;5826;54.756;9.192;2023-04-12T13:44:14;8.80;99.90
11540;DHT22;5826;54.756;9.192;2023-04-12T13:46:40;8.80;99.90
11540;DHT22;5826;54.756;9.192;2023-04-12T13:49:06;8.80;99.90
11540;DHT22;5826;54.756;9.192;2023-04-12T13:51:31;8.80;99.90
11540;DHT22;5826;54.756;9.192;2023-04-12T13:53:57;8.80;99.90
11540;DHT22;5826;54.756;9.192;2023-04-12T13:56:23;8.90;99.90
11540;DHT22;5826;54.756;9.192;2023-04-12T13:58:49;8.90;99.90
11540;DHT22;5826;54.756;9.192;2023-04-12T14:01:14;8.90;99.90
11540;DHT22;5826;54.756;9.192;2023-04-12T14:03:40;9.00;99.90
11540;DHT22;5826;54.756;9.192;2023-04-12T14:06:06;9.00;99.90
11540;DHT22;5826;54.756;9.192;2023-04-12T14:08:32;9.10;99.90
11540;DHT22;5826;54.756;9.192;2023-04-12T14:10:58;9.10;99.90
11540;DHT22;5826;54.756;9.192;2023-04-12T14:13:25;9.10;99.90
11540;DHT22;5826;54.756;9.192;2023-04-12T14:15:51;9.20;99.90
11540;DHT22;5826;54.756;9.192;2023-04-12T14:18:18;9.10;99.90
11540;DHT22;5826;54.756;9.192;2023-04-12T14:20:43;9.20;99.90
11540;DHT22;5826;54.756;9.192;2023-04-12T14:23:12;9.20;99.90
11540;DHT22;5826;54.756;9.192;2023-04-12T14:25:38;9.20;99.90
11540;DHT22;5826;54.756;9.192;2023-04-12T14:28:04;9.20;99.90
11540;DHT22;5826;54.756;9.192;2023-04-12T14:30:29;9.20;99.90
11540;DHT22;5826;54.756;9.192;2023-04-12T14:32:55;9.20;99.90
11540;DHT22;5826;54.756;9.192;2023-04-12T14:35:20;9.20;99.90
11540;DHT22;5826;54.756;9.192;2023-04-12T14:37:46;9.20;99.90
11540;DHT22;5826;54.756;9.192;2023-04-12T14:40:12;9.20;99.90
11540;DHT22;5826;54.756;9.192;2023-04-12T14:42:37;9.10;99.90
11540;DHT22;5826;54.756;9.192;2023-04-12T14:45:03;9.20;99.90
11540;DHT22;5826;54.756;9.192;2023-04-12T14:47:32;9.20;99.90
11540;DHT22;5826;54.756;9.192;2023-04-12T14:49:58;9.20;99.90
11540;DHT22;5826;54.756;9.192;2023-04-12T14:52:24;9.20;99.90
11540;DHT22;5826;54.756;9.192;2023-04-12T14:54:50;9.10;99.90
11540;DHT22;5826;54.756;9.192;2023-04-12T14:57:16;9.10;99.90
11540;DHT22;5826;54.756;9.192;2023-04-12T14:59:41;9.10;99.90
11540;DHT22;5826;54.756;9.192;2023-04-12T15:02:07;9.10;99.90
11540;DHT22;5826;54.756;9.192;2023-04-12T15:04:33;9.10;99.90
11540;DHT22;5826;54.756;9.192;2023-04-12T15:06:58;9.20;99.90
11540;DHT22;5826;54.756;9.192;2023-04-12T15:09:24;9.20;99.90
11540;DHT22;5826;54.756;9.192;2023-04-12T15:11:50;9.20;99.90
11540;DHT22;5826;54.756;9.192;2023-04-12T15:14:19;9.20;99.90
11540;DHT22;5826;54.756;9.192;2023-04-12T15:16:46;9.20;99.90
11540;DHT22;5826;54.756;9.192;2023-04-12T15:19:13;9.20;99.90
11540;DHT22;5826;54.756;9.192;2023-04-12T15:21:39;9.20;99.90
11540;DHT22;5826;54.756;9.192;2023-04-12T15:24:04;9.20;99.90
11540;DHT22;5826;54.756;9.192;2023-04-12T15:26:30;9.20;99.90
11540;DHT22;5826;54.756;9.192;2023-04-12T15:28:56;9.20;99.90
11540;DHT22;5826;54.756;9.192;2023-04-12T15:31:21;9.20;99.90
11540;DHT22;5826;54.756;9.192;2023-04-12T15:33:47;9.20;99.90
11540;DHT22;5826;54.756;9.192;2023-04-12T15:36:15;9.20;99.90
11540;DHT22;5826;54.756;9.192;2023-04-12T15:38:41;9.20;99.90
11540;DHT22;5826;54.756;9.192;2023-04-12T15:41:07;9.20;99.90
11540;DHT22;5826;54.756;9.192;2023-04-12T15:43:33;9.20;99.90
11540;DHT22;5826;54.756;9.192;2023-04-12T15:45:58;9.20;99.90
11540;DHT22;5826;54.756;9.192;2023-04-12T15:48:25;9.20;99.90
11540;DHT22;5826;54.756;9.192;2023-04-12T15:50:52;9.20;99.90
11540;DHT22;5826;54.756;9.192;2023-04-12T15:53:23;9.30;99.90
11540;DHT22;5826;54.756;9.192;2023-04-12T15:55:50;9.30;99.90
11540;DHT22;5826;54.756;9.192;2023-04-12T15:58:20;9.30;99.90
11540;DHT22;5826;54.756;9.192;2023-04-12T16:00:46;9.30;99.90
11540;DHT22;5826;54.756;9.192;2023-04-12T16:03:12;9.30;99.90
11540;DHT22;5826;54.756;9.192;2023-04-12T16:05:41;9.30;99.90
11540;DHT22;5826;54.756;9.192;2023-04-12T16:08:07;9.30;99.90
11540;DHT22;5826;54.756;9.192;2023-04-12T16:10:34;9.30;99.90
11540;DHT22;5826;54.756;9.192;2023-04-12T16:12:59;9.30;99.90
11540;DHT22;5826;54.756;9.192;2023-04-12T16:15:25;9.30;99.90
11540;DHT22;5826;54.756;9.192;2023-04-12T16:17:51;9.30;99.90